Weather at Grove Municipal Airport

Public forecast

Using degrees Fahrenheit for public forecast. Weather courtesy of forecast.io.

Current aviation weather report (METAR) for Grove Municipal Airport

Retrieved 2021/04/11 06:55 UTC (20 minutes ago):

KGMJ 110655Z AUTO 00000KT 10SM CLR 07/05 A2973 RMK AO2

Closest aviation forecast (TAF) to Grove Municipal Airport

Closest forecast is Northwest Arkansas Regional Airport, 28.6 nm (52.9 km) SE. Retrieved 2021/04/11 06:27 UTC (48 minutes ago):

TAF KXNA 110524Z 1106/1206 23005KT P6SM SKC FM111400 22012G19KT P6SM SKC FM120100 23006KT P6SM FEW100 FM120500 35010KT P6SM FEW100